Latest Coastal Weather Observations for Carnarvon

IDW60701

Issued at 10:02 pm WST Saturday 25 June 2016 (issued every 10 minutes, with the page automatically refreshed every 10 minutes)

About coastal observations | Map of coastal stations | Coastal observations for WA | Marine services | Other Formats
Station Details ID: 006011 Name: CARNARVON AIRPORT Lat: -24.89 Lon: 113.67 Height: 4.0 m
Data from the previous 72 hours. | See also: Recent months at Carnarvon
Date/Time
WST
Temp
°C
Wind Pressure Rain since
9am
mm
Weather Cloud Vis
km
Sea
Height
m
Swell
Dir  Spd
kts
Gust
kts
hPa Trend Height
m
Period
s
Dir
25/10:00pm 16.5 SSE 12 15 1021.1 - 0.0 - - 10 - - - -
25/09:30pm 16.8 SSE 12 15 1021.1 - 0.0 - - 10 - - - -
25/09:00pm 16.2 S 8 10 1021.2 - 0.0 - - 10 - - - -
25/08:30pm 16.5 S 9 11 1020.9 - 0.0 - - 10 - - - -
25/08:00pm 16.7 S 9 11 1020.7 - 0.0 - - 10 - - - -
25/07:30pm 16.7 S 9 11 1020.4 - 0.0 - - 10 - - - -
25/07:00pm 17.2 S 9 12 1020.0 - 0.0 - - 10 - - - -
25/06:30pm 17.3 SSE 11 13 1019.5 - 0.0 - - 10 - - - -
25/06:00pm 18.0 S 11 13 1019.5 - 0.0 - - 10 - - - -
25/05:30pm 19.2 SSE 12 15 1019.8 - 0.0 - - 10 - - - -
25/05:00pm 20.1 S 13 18 1019.5 - 0.0 - - 10 - - - -
25/04:30pm 20.5 SSE 15 21 1019.0 - 0.0 - - 10 - - - -
25/04:00pm 20.6 S 18 23 1018.7 - 0.0 - - 10 - - - -
25/03:30pm 20.8 S 17 22 1018.7 - 0.0 - - 10 - - - -
25/03:00pm 21.2 S 17 21 1018.6 - 0.0 Fine Clear 27 - - - -
25/02:30pm 20.6 S 18 23 1018.6 - 0.0 - - 10 - - - -
25/02:00pm 19.4 SSW 13 17 1018.8 - 0.0 - - 10 - - - -
25/01:30pm 19.4 SSW 15 20 1018.9 - 0.0 - - 10 - - - -
25/01:00pm 18.9 SSW 13 17 1019.2 - 0.0 - - 10 - - - -
25/12:30pm 19.1 SSW 14 17 1019.5 - 0.0 - - 10 - - - -
25/12:00pm 20.7 S 16 20 1019.7 - 0.0 - - 10 - - - -
25/11:30am 20.6 SSE 15 20 1019.7 - 0.0 - - 10 - - - -
25/11:00am 19.5 S 15 19 1019.8 - 0.0 - - 10 - - - -
25/10:30am 19.0 S 14 18 1020.0 - 0.0 - - 10 - - - -
25/10:00am 18.2 S 13 17 1020.2 - 0.0 - - 10 - - - -
25/09:30am 17.6 S 11 14 1020.2 - 0.0 - - 10 - - - -
25/09:00am 16.1 S 9 11 1019.9 - 0.0 Fine Clear 25 - - - -
25/08:30am 15.0 SSE 8 9 1019.6 - 0.0 - - 10 - - - -
25/08:00am 12.5 SSE 5 6 1019.1 - 0.0 - - 10 - - - -
25/07:30am 11.2 S 6 7 1018.8 - 0.0 - - 10 - - - -
25/07:00am 12.1 S 7 9 1018.5 - 0.0 - - 10 - - - -
25/06:30am 12.9 S 8 10 1018.2 - 0.0 - - 10 - - - -
25/06:00am 13.6 S 9 11 1017.8 - 0.0 - - 10 - - - -
25/05:30am 13.4 S 8 10 1017.7 - 0.0 - - 10 - - - -
25/05:00am 13.4 S 8 9 1017.2 - 0.0 - - 10 - - - -
25/04:30am 13.6 S 8 11 1016.9 - 0.0 - - 10 - - - -
25/04:00am 14.2 S 9 12 1016.8 - 0.0 - - 10 - - - -
25/03:30am 14.8 S 10 12 1016.8 - 0.0 - - 10 - - - -
25/03:00am 15.2 S 10 13 1016.8 - 0.0 - - 10 - - - -
25/02:30am 14.9 S 10 12 1016.9 - 0.0 - - 10 - - - -
25/02:00am 14.5 S 9 11 1016.9 - 0.0 - - 10 - - - -
25/01:30am 14.8 S 9 11 1016.9 - 0.0 - - 10 - - - -
25/01:00am 15.4 S 10 12 1016.9 - 0.0 - - 10 - - - -
25/12:30am 15.6 S 11 13 1016.8 - 0.0 - - 10 - - - -
25/12:00am 15.7 S 11 14 1016.7 - 0.0 - - 10 - - - -
 
Date/Time
WST
Temp
°C
Wind Pressure Rain since
9am
mm
Weather Cloud Vis
km
Sea
Height
m
Swell
Dir  Spd
kts
Gust
kts
hPa Trend Height
m
Period
s
Dir
24/11:30pm 15.7 S 10 12 1016.7 - 0.0 - Partly cloudy 10 - - - -
24/11:00pm 16.0 S 11 13 1016.8 - 0.0 - Partly cloudy 10 - - - -
24/10:30pm 16.1 S 10 12 1016.8 - 0.0 - Partly cloudy 10 - - - -
24/10:00pm 16.2 S 12 16 1016.4 - 0.0 - - 10 - - - -
24/09:30pm 16.2 S 10 13 1016.3 - 0.0 - Partly cloudy 10 - - - -
24/09:00pm 15.8 S 8 10 1016.0 - 0.0 - Mostly clear 10 - - - -
24/08:30pm 16.2 S 8 10 1015.9 - 0.0 - Partly cloudy 10 - - - -
24/08:00pm 16.4 S 9 10 1015.5 - 0.0 - - 10 - - - -
24/07:30pm 16.6 SSW 8 10 1015.4 - 0.0 - - 10 - - - -
24/07:00pm 16.7 SSW 8 10 1015.1 - 0.0 - - 10 - - - -
24/06:30pm 16.7 SSW 9 12 1014.6 - 0.0 - - 10 - - - -
24/06:00pm 16.9 SSW 9 11 1014.9 - 0.0 - - 10 - - - -
24/05:30pm 17.2 SSW 8 11 1014.4 - 0.0 - - 10 - - - -
24/05:00pm 17.2 SSW 9 11 1014.2 - 0.0 - - 10 - - - -
24/04:30pm 17.4 SSW 10 13 1014.3 - 0.0 - - 10 - - - -
24/04:00pm 17.5 SSW 11 14 1014.1 - 0.0 - - 10 - - - -
24/03:30pm 17.3 SSW 11 14 1014.0 - 0.0 - - 10 - - - -
24/03:00pm 17.5 SSW 12 15 1014.0 - 0.0 Fine Mostly cloudy 14 - - - -
24/02:30pm 17.8 SSW 10 12 1013.9 - 0.0 - Partly cloudy 10 - - - -
24/02:00pm 17.7 SSW 12 14 1013.8 - 0.0 - Partly cloudy 10 - - - -
24/01:30pm 17.9 SSW 12 15 1014.0 - 0.0 - Cloudy 10 - - - -
24/01:00pm 18.1 SSW 12 15 1014.5 - 0.0 - Cloudy 10 - - - -
24/12:30pm 18.6 SSW 14 17 1015.0 - 0.0 - Partly cloudy 10 - - - -
24/12:00pm 18.4 SSW 11 13 1015.5 - 0.0 - Mostly clear 10 - - - -
24/11:30am 19.0 SE 7 10 1015.7 - 0.0 - - 10 - - - -
24/11:00am 17.9 SE 6 9 1016.1 - 0.0 - Partly cloudy 10 - - - -
24/10:30am 17.1 ESE 7 10 1016.5 - 0.0 - Partly cloudy 10 - - - -
24/10:00am 16.9 ESE 9 11 1016.7 - 0.0 - - 10 - - - -
24/09:30am 15.6 ESE 11 15 1016.5 - 0.0 - - 10 - - - -
24/09:00am 14.5 ESE 11 15 1016.4 - - Fine Clear 25 - - - -
24/08:30am 13.1 SE 9 13 1016.1 - - - - 10 - - - -
24/08:00am 11.2 SSE 7 9 1016.4 - - - - 10 - - - -
24/07:30am 9.8 SSE 6 7 1016.3 - - - - 10 - - - -
24/07:00am 10.0 SE 8 10 1016.0 - - - - 10 - - - -
24/06:30am 10.2 SE 9 11 1015.8 - - - - 10 - - - -
24/06:00am 10.3 SE 8 11 1015.8 - - - - 10 - - - -
24/05:30am 10.5 SE 9 11 1015.6 - - - - 10 - - - -
24/05:00am 10.8 SSE 10 12 1015.4 - - - - 10 - - - -
24/04:30am 10.8 SSE 10 12 1015.5 - - - - 10 - - - -
24/04:00am 10.7 SSE 9 12 1015.7 - - - - 10 - - - -
24/03:30am 10.7 SSE 9 11 1015.7 - - - - 10 - - - -
24/03:00am 10.5 SSE 9 10 1016.2 - - - - 10 - - - -
24/02:30am 10.5 SSE 8 9 1016.5 - - - - 10 - - - -
24/02:00am 10.7 SSE 9 10 1016.5 - - - - 10 - - - -
24/01:30am 10.7 SSE 8 10 1016.8 - - - - 10 - - - -
24/01:00am 10.9 SSE 8 9 1017.2 - - - - 10 - - - -
24/12:30am 11.2 SSE 8 10 1017.4 - - - - 10 - - - -
24/12:00am 11.4 SSE 9 10 1017.4 - - - - 10 - - - -
 
Date/Time
WST
Temp
°C
Wind Pressure Rain since
9am
mm
Weather Cloud Vis
km
Sea
Height
m
Swell
Dir  Spd
kts
Gust
kts
hPa Trend Height
m
Period
s
Dir
23/11:30pm 11.1 SSE 8 9 1017.4 - - - - 10 - - - -
23/11:00pm 11.3 SSE 8 9 1017.7 - - - - 10 - - - -
23/10:30pm 12.4 SE 9 10 1017.8 - - - - 10 - - - -
23/10:00pm 12.4 SE 8 9 1017.6 - - - - 10 - - - -
23/09:30pm 12.7 SE 8 10 1017.8 - - - - 10 - - - -
23/09:00pm 12.2 SE 8 9 1017.7 - - - - 10 - - - -
23/08:30pm 12.6 SSE 8 9 1017.8 - - - - 10 - - - -
23/08:00pm 13.4 SSE 7 7 1017.5 - - - - 10 - - - -
23/07:30pm 14.3 SSE 8 9 1017.1 - - - - 10 - - - -
23/07:00pm 15.0 S 8 9 1017.0 - - - - 10 - - - -
23/06:30pm 15.7 S 8 11 1016.7 - - - - 10 - - - -
23/06:00pm 17.1 SSE 7 9 1016.6 - - - - 10 - - - -
23/05:30pm 19.1 SE 9 13 1016.4 - - - - 10 - - - -
23/05:00pm 20.2 SE 14 18 1016.1 - - - - 10 - - - -
23/04:30pm 20.7 SE 12 16 1015.9 - - - - 10 - - - -
23/04:00pm 21.0 SE 14 21 1015.8 - - - - 10 - - - -
23/03:30pm 21.0 SE 15 19 1015.6 - - - - 10 - - - -
23/03:00pm 20.8 ESE 15 21 1015.7 - - - - 10 - - - -
23/02:00pm 20.4 SE 16 22 1016.3 - 0.0 - - 10 - - - -
23/01:30pm 20.3 SE 15 19 1016.8 - 0.0 - - 10 - - - -
23/01:00pm 19.7 ESE 15 20 1017.4 - 0.0 - - 10 - - - -
23/12:30pm 19.5 SE 15 21 1018.0 - 0.0 - - 10 - - - -
23/12:00pm 19.0 SE 17 23 1018.6 - 0.0 - - 10 - - - -
23/11:30am 18.8 ESE 18 23 1019.1 - 0.0 - - 10 - - - -
23/11:00am 18.2 ESE 19 26 1019.5 - 0.0 - - 10 - - - -
23/10:30am 17.5 ESE 19 26 1020.0 - 0.0 - - 10 - - - -
23/10:00am 17.0 ESE 17 21 1020.2 - 0.0 - - 10 - - - -
23/09:30am 16.2 ESE 16 21 1020.1 - 0.0 - - 10 - - - -
23/09:00am 14.9 ESE 13 17 1019.9 - - Fine Clear 27 - - - -

Other Formats:

Comma delimited format used in spreadsheet applications
http://www.bom.gov.au/fwo/IDW60701/IDW60701.94300.axf

JavaScript Object Notation format (JSON) in row-major order
http://www.bom.gov.au/fwo/IDW60701/IDW60701.94300.json